Time;durP1;ratioP1;P1;durP2;ratioP2;P2;SDS_P1;SDS_P2;PMS_P1;PMS_P2;Temp;Humidity;BMP_temperature;BMP_pressure;BME280_temperature;BME280_humidity;BME280_pressure;Samples;Min_cycle;Max_cycle;Signal;HPM_P1;HPM_P2
2023/04/03 00:00:09;;;;;;;;;;;8.60;99.90;9.10;99907.00;;;;347457;28;90945;-94
2023/04/03 00:00:21;;;;;;;;;;;8.60;99.90;9.00;99914.00;;;;347986;28;82532;-94
2023/04/03 00:00:33;;;;;;;;;;;8.60;99.90;9.00;99893.00;;;;344643;28;91851;-95
2023/04/03 00:00:46;;;;;;;;;;;8.60;99.90;9.00;99911.00;;;;350420;27;82557;-95
2023/04/03 00:00:57;;;;;;;;;;;8.60;99.90;9.00;99898.00;;;;347177;28;90102;-94
2023/04/03 00:01:09;;;;;;;;;;;8.60;99.90;9.10;99902.00;;;;348849;27;82581;-95
2023/04/03 00:01:21;;;;;;;;;;;8.60;99.90;9.10;99901.00;;;;345832;28;90793;-94
2023/04/03 00:01:33;;;;;;;;;;;8.60;99.90;9.10;99898.00;;;;346354;28;82520;-94
2023/04/03 00:01:45;;;;;;;;;;;8.70;99.90;9.00;99904.00;;;;347229;28;90298;-94
2023/04/03 00:01:57;;;;;;;;;;;8.70;99.90;9.10;99900.00;;;;348836;27;82668;-95
2023/04/03 00:02:08;;;;;;;;;;;8.60;99.90;9.10;99898.00;;;;347478;28;91437;-94
2023/04/03 00:02:22;;;;;;;;;;;8.70;99.90;9.00;99896.00;;;;347992;28;82400;-94
2023/04/03 00:02:34;;;;;;;;;;;8.60;99.90;9.00;99907.00;;;;345844;28;90758;-95
2023/04/03 00:02:46;;;;;;;;;;;8.60;99.90;9.00;99903.00;;;;346316;28;82471;-95
2023/04/03 00:02:58;;;;;;;;;;;8.70;99.90;9.10;99908.00;;;;345904;28;89800;-94
2023/04/03 00:03:10;;;;;;;;;;;8.60;99.90;9.10;99910.00;;;;349168;27;82532;-96
2023/04/03 00:03:22;;;;;;;;;;;8.70;99.90;9.10;99906.00;;;;347633;28;90368;-95
2023/04/03 00:03:34;;;;;;;;;;;8.70;99.90;9.10;99900.00;;;;347998;28;82526;-94
2023/04/03 00:03:46;;;;;;;;;;;8.70;99.90;9.10;99904.00;;;;347372;27;90600;-94
2023/04/03 00:03:58;;;;;;;;;;;8.70;99.90;9.00;99902.00;;;;346489;28;82434;-94
2023/04/03 00:04:10;;;;;;;;;;;8.70;99.90;8.90;99903.00;;;;344586;28;91692;-94
2023/04/03 00:04:22;;;;;;;;;;;8.60;99.90;9.00;99904.00;;;;346347;28;82504;-94
2023/04/03 00:04:34;;;;;;;;;;;8.60;99.90;9.00;99898.00;;;;348780;27;90633;-94
2023/04/03 00:04:46;;;;;;;;;;;8.60;99.90;8.90;99906.00;;;;347757;28;82544;-95
2023/04/03 00:04:58;;;;;;;;;;;8.60;99.90;9.00;99905.00;;;;347426;28;89430;-94
2023/04/03 00:05:10;;;;;;;;;;;8.60;99.90;9.00;99907.00;;;;346337;28;83585;-94
2023/04/03 00:05:22;;;;;;;;;;;8.60;99.90;9.00;99906.00;;;;346139;28;90894;-95
2023/04/03 00:05:33;;;;;;;;;;;8.60;99.90;9.00;99911.00;;;;345195;28;82345;-95
2023/04/03 00:05:46;;;;;;;;;;;8.60;99.90;9.00;99905.00;;;;346317;28;87763;-94
2023/04/03 00:05:58;;;;;;;;;;;8.60;99.90;9.00;99905.00;;;;346712;28;83450;-95
2023/04/03 00:06:11;;;;;;;;;;;8.60;99.90;8.90;99905.00;;;;347056;28;90033;-95
2023/04/03 00:06:23;;;;;;;;;;;8.60;99.90;9.00;99906.00;;;;347663;28;82550;-95
2023/04/03 00:06:35;;;;;;;;;;;8.60;99.90;8.90;99901.00;;;;345864;28;90606;-95
2023/04/03 00:06:47;;;;;;;;;;;8.60;99.90;9.00;99903.00;;;;346285;28;82507;-95
2023/04/03 00:06:59;;;;;;;;;;;8.60;99.90;8.90;99909.00;;;;345776;28;89033;-95
2023/04/03 00:07:12;;;;;;;;;;;8.60;99.90;8.90;99900.00;;;;347447;27;82621;-96
2023/04/03 00:07:24;;;;;;;;;;;8.60;99.90;9.00;99909.00;;;;347137;28;89568;-95
2023/04/03 00:07:36;;;;;;;;;;;8.60;99.90;9.00;99895.00;;;;346503;28;82627;-96
2023/04/03 00:07:49;;;;;;;;;;;8.60;99.90;9.00;99894.00;;;;345907;28;89551;-96
2023/04/03 00:08:01;;;;;;;;;;;8.60;99.90;8.90;99895.00;;;;346463;28;82451;-95
2023/04/03 00:08:13;;;;;;;;;;;8.60;99.90;9.00;99912.00;;;;347391;28;90769;-95
2023/04/03 00:08:25;;;;;;;;;;;8.60;99.90;8.90;99903.00;;;;347500;28;82554;-95
2023/04/03 00:08:37;;;;;;;;;;;8.60;99.90;8.90;99901.00;;;;345944;28;90531;-96
2023/04/03 00:08:50;;;;;;;;;;;8.60;99.90;9.00;99903.00;;;;347982;28;82409;-96
2023/04/03 00:09:02;;;;;;;;;;;8.60;99.90;8.90;99898.00;;;;346036;28;90563;-95
2023/04/03 00:09:14;;;;;;;;;;;8.60;99.90;9.00;99901.00;;;;347627;28;83475;-94
2023/04/03 00:09:26;;;;;;;;;;;8.60;99.90;9.00;99900.00;;;;345813;28;88254;-95
2023/04/03 00:09:39;;;;;;;;;;;8.60;99.90;9.00;99904.00;;;;347476;28;82559;-96
2023/04/03 00:09:51;;;;;;;;;;;8.60;99.90;9.00;99895.00;;;;345909;28;90382;-95
2023/04/03 00:10:03;;;;;;;;;;;8.60;99.90;9.00;99906.00;;;;345073;28;83405;-95
2023/04/03 00:10:15;;;;;;;;;;;8.60;99.90;9.00;99901.00;;;;345689;28;91911;-95
2023/04/03 00:10:28;;;;;;;;;;;8.60;99.90;9.00;99902.00;;;;346214;28;82549;-95
2023/04/03 00:10:40;;;;;;;;;;;8.60;99.90;9.00;99895.00;;;;347361;27;90813;-95
2023/04/03 00:10:52;;;;;;;;;;;8.60;99.90;9.00;99896.00;;;;347603;28;83283;-95
2023/04/03 00:11:04;;;;;;;;;;;8.60;99.90;8.90;99907.00;;;;347312;27;90260;-95
2023/04/03 00:11:16;;;;;;;;;;;8.60;99.90;8.80;99898.00;;;;346382;28;82568;-95
2023/04/03 00:11:28;;;;;;;;;;;8.50;99.90;8.80;99905.00;;;;345965;28;90286;-95
2023/04/03 00:11:40;;;;;;;;;;;8.50;99.90;8.90;99888.00;;;;349067;27;82590;-95
2023/04/03 00:11:52;;;;;;;;;;;8.50;99.90;8.90;99889.00;;;;347228;28;90568;-95
2023/04/03 00:12:04;;;;;;;;;;;8.50;99.90;8.90;99893.00;;;;347706;28;82510;-95
2023/04/03 00:12:16;;;;;;;;;;;8.50;99.90;8.90;99897.00;;;;345803;28;90871;-94
2023/04/03 00:12:28;;;;;;;;;;;8.50;99.90;8.90;99899.00;;;;347634;27;83529;-95
2023/04/03 00:12:40;;;;;;;;;;;8.50;99.90;9.00;99902.00;;;;346131;28;91050;-95
2023/04/03 00:12:52;;;;;;;;;;;8.50;99.90;8.90;99894.00;;;;347654;28;83229;-95
2023/04/03 00:13:04;;;;;;;;;;;8.50;99.90;8.90;99890.00;;;;346924;28;89764;-96
2023/04/03 00:13:16;;;;;;;;;;;8.50;99.90;9.00;99887.00;;;;347787;28;82532;-95
2023/04/03 00:13:29;;;;;;;;;;;8.50;99.90;8.90;99900.00;;;;347499;28;87358;-94
2023/04/03 00:13:41;;;;;;;;;;;8.50;99.90;8.80;99894.00;;;;346335;28;82500;-95
2023/04/03 00:13:53;;;;;;;;;;;8.50;99.90;8.80;99891.00;;;;347064;28;89648;-95
2023/04/03 00:14:05;;;;;;;;;;;8.50;99.90;8.80;99902.00;;;;347737;28;82491;-95
2023/04/03 00:14:17;;;;;;;;;;;8.50;99.90;8.90;99894.00;;;;347054;28;91360;-95
2023/04/03 00:14:29;;;;;;;;;;;8.50;99.90;8.90;99893.00;;;;346043;28;82443;-96
2023/04/03 00:14:41;;;;;;;;;;;8.50;99.90;8.90;99904.00;;;;347358;28;90480;-96
2023/04/03 00:14:53;;;;;;;;;;;8.50;99.90;8.90;99907.00;;;;346188;28;83510;-95
2023/04/03 00:15:05;;;;;;;;;;;8.50;99.90;8.90;99901.00;;;;347422;28;91390;-95
2023/04/03 00:15:18;;;;;;;;;;;8.50;99.90;8.80;99902.00;;;;346181;28;82402;-95
2023/04/03 00:15:30;;;;;;;;;;;8.50;99.90;8.80;99898.00;;;;346922;27;89966;-95
2023/04/03 00:15:42;;;;;;;;;;;8.50;99.90;8.80;99898.00;;;;347722;28;82631;-96
2023/04/03 00:15:53;;;;;;;;;;;8.50;99.90;8.90;99896.00;;;;345782;28;90451;-94
2023/04/03 00:16:06;;;;;;;;;;;8.50;99.90;8.80;99900.00;;;;347948;28;82532;-95
2023/04/03 00:16:18;;;;;;;;;;;8.50;99.90;8.80;99902.00;;;;348647;27;91508;-95
2023/04/03 00:16:30;;;;;;;;;;;8.50;99.90;8.90;99902.00;;;;347767;28;82543;-95
2023/04/03 00:16:42;;;;;;;;;;;8.50;99.90;8.90;99898.00;;;;348586;27;89861;-95
2023/04/03 00:16:54;;;;;;;;;;;8.50;99.90;8.80;99905.00;;;;349244;27;82545;-96
2023/04/03 00:17:07;;;;;;;;;;;8.50;99.90;8.80;99902.00;;;;347454;28;89849;-94
2023/04/03 00:17:19;;;;;;;;;;;8.50;99.90;8.80;99900.00;;;;346495;28;82711;-95
2023/04/03 00:17:31;;;;;;;;;;;8.40;99.90;8.80;99900.00;;;;345863;28;89695;-95
2023/04/03 00:17:42;;;;;;;;;;;8.40;99.90;8.90;99896.00;;;;349133;27;82526;-95
2023/04/03 00:17:54;;;;;;;;;;;8.50;99.90;8.90;99903.00;;;;347136;28;91264;-95
2023/04/03 00:18:06;;;;;;;;;;;8.50;99.90;8.90;99900.00;;;;347749;28;83402;-96
2023/04/03 00:18:19;;;;;;;;;;;8.50;99.90;8.90;99896.00;;;;345810;28;91944;-95
2023/04/03 00:18:31;;;;;;;;;;;8.40;99.90;8.90;99895.00;;;;347408;28;82599;-95
2023/04/03 00:18:43;;;;;;;;;;;8.50;99.90;8.90;99890.00;;;;347208;28;91696;-95
2023/04/03 00:18:55;;;;;;;;;;;8.50;99.90;8.90;99902.00;;;;346279;28;82639;-95
2023/04/03 00:19:07;;;;;;;;;;;8.50;99.90;8.90;99886.00;;;;347219;28;89887;-96
2023/04/03 00:19:19;;;;;;;;;;;8.50;99.90;9.00;99900.00;;;;345042;28;82342;-95
2023/04/03 00:19:31;;;;;;;;;;;8.50;99.90;9.00;99902.00;;;;347098;28;90625;-95
2023/04/03 00:19:43;;;;;;;;;;;8.50;99.90;9.00;99907.00;;;;346270;28;82336;-95
2023/04/03 00:19:55;;;;;;;;;;;8.50;99.90;9.00;99901.00;;;;346825;28;89532;-95
2023/04/03 00:20:07;;;;;;;;;;;8.50;99.90;8.90;99901.00;;;;346246;28;82439;-95
2023/04/03 00:20:19;;;;;;;;;;;8.50;99.90;8.90;99888.00;;;;345699;28;91245;-95
2023/04/03 00:20:31;;;;;;;;;;;8.50;99.90;8.90;99905.00;;;;344881;28;82504;-95
2023/04/03 00:20:43;;;;;;;;;;;8.50;99.90;9.00;99898.00;;;;346951;28;90473;-95
2023/04/03 00:20:55;;;;;;;;;;;8.50;99.90;9.00;99901.00;;;;345987;28;82607;-96
2023/04/03 00:21:08;;;;;;;;;;;8.50;99.90;9.00;99902.00;;;;345905;28;89834;-95
2023/04/03 00:21:20;;;;;;;;;;;8.50;99.90;9.00;99899.00;;;;348887;27;82557;-96
2023/04/03 00:21:32;;;;;;;;;;;8.50;99.90;9.00;99896.00;;;;347166;28;90484;-96
2023/04/03 00:21:44;;;;;;;;;;;8.50;99.90;9.00;99895.00;;;;346180;28;82531;-95
2023/04/03 00:21:56;;;;;;;;;;;8.50;99.90;9.00;99898.00;;;;345579;28;90778;-96
2023/04/03 00:22:08;;;;;;;;;;;8.50;99.90;9.00;99904.00;;;;348994;27;82518;-95
2023/04/03 00:22:19;;;;;;;;;;;8.60;99.90;9.00;99900.00;;;;348438;27;90832;-95
2023/04/03 00:22:32;;;;;;;;;;;8.60;99.90;9.00;99897.00;;;;349065;27;82501;-95
2023/04/03 00:22:43;;;;;;;;;;;8.60;99.90;9.00;99892.00;;;;348349;27;90694;-95
2023/04/03 00:22:55;;;;;;;;;;;8.60;99.90;9.10;99897.00;;;;347377;28;83398;-95
2023/04/03 00:23:07;;;;;;;;;;;8.60;99.90;9.10;99901.00;;;;346899;28;89213;-95
2023/04/03 00:23:19;;;;;;;;;;;8.60;99.90;9.10;99906.00;;;;347561;28;82568;-95
2023/04/03 00:23:31;;;;;;;;;;;8.60;99.90;9.00;99897.00;;;;345689;28;90996;-96
2023/04/03 00:23:43;;;;;;;;;;;8.60;99.90;9.00;99901.00;;;;346023;28;83468;-95
2023/04/03 00:23:55;;;;;;;;;;;8.60;99.90;9.00;99906.00;;;;348264;27;90652;-95
2023/04/03 00:24:07;;;;;;;;;;;8.60;99.90;9.00;99895.00;;;;347650;28;82424;-96
2023/04/03 00:24:19;;;;;;;;;;;8.60;99.90;8.90;99888.00;;;;348606;27;91051;-96
2023/04/03 00:24:30;;;;;;;;;;;8.60;99.90;8.90;99893.00;;;;345911;28;82542;-96
2023/04/03 00:24:42;;;;;;;;;;;8.60;99.90;8.90;99898.00;;;;347116;28;90815;-95
2023/04/03 00:24:54;;;;;;;;;;;8.60;99.90;9.00;99900.00;;;;347675;28;82388;-95
2023/04/03 00:25:07;;;;;;;;;;;8.60;99.90;9.00;99901.00;;;;345644;28;90798;-96
2023/04/03 00:25:19;;;;;;;;;;;8.60;99.90;9.00;99892.00;;;;347598;28;82444;-95
2023/04/03 00:25:33;;;;;;;;;;;8.60;99.90;8.90;99899.00;;;;346662;28;90088;-95
2023/04/03 00:25:45;;;;;;;;;;;8.60;99.90;8.80;99891.00;;;;346097;28;82503;-95
2023/04/03 00:25:57;;;;;;;;;;;8.60;99.90;8.90;99893.00;;;;348749;27;87907;-96
2023/04/03 00:26:08;;;;;;;;;;;8.50;99.90;8.80;99894.00;;;;346058;28;82542;-95
2023/04/03 00:26:20;;;;;;;;;;;8.60;99.90;8.80;99903.00;;;;347036;28;91715;-95
2023/04/03 00:26:32;;;;;;;;;;;8.50;99.90;8.80;99893.00;;;;347614;27;83371;-95
2023/04/03 00:26:44;;;;;;;;;;;8.50;99.90;8.90;99890.00;;;;345917;28;91653;-95
2023/04/03 00:26:56;;;;;;;;;;;8.50;99.90;8.90;99898.00;;;;344888;28;83396;-96
2023/04/03 00:27:08;;;;;;;;;;;8.50;99.90;8.80;99888.00;;;;345606;28;89058;-95
2023/04/03 00:27:20;;;;;;;;;;;8.50;99.90;8.80;99890.00;;;;346348;28;82336;-95
2023/04/03 00:27:32;;;;;;;;;;;8.50;99.90;8.90;99890.00;;;;347179;28;90469;-95
2023/04/03 00:27:44;;;;;;;;;;;8.50;99.90;8.80;99891.00;;;;344875;28;82447;-95
2023/04/03 00:27:56;;;;;;;;;;;8.50;99.90;8.90;99894.00;;;;347262;28;89778;-96
2023/04/03 00:28:08;;;;;;;;;;;8.50;99.90;8.90;99888.00;;;;346356;28;82383;-95
2023/04/03 00:28:20;;;;;;;;;;;8.50;99.90;8.90;99894.00;;;;348271;27;92824;-95
2023/04/03 00:28:32;;;;;;;;;;;8.50;99.90;8.90;99893.00;;;;347545;27;82589;-96
2023/04/03 00:28:43;;;;;;;;;;;8.50;99.90;8.90;99902.00;;;;348640;27;90897;-94
2023/04/03 00:28:55;;;;;;;;;;;8.50;99.90;9.00;99903.00;;;;346429;28;82479;-95
2023/04/03 00:29:07;;;;;;;;;;;8.50;99.90;8.90;99901.00;;;;348613;27;90475;-95
2023/04/03 00:29:19;;;;;;;;;;;8.50;99.90;8.90;99897.00;;;;347744;28;82502;-95
2023/04/03 00:29:31;;;;;;;;;;;8.50;99.90;8.80;99892.00;;;;346047;28;92004;-95
2023/04/03 00:29:43;;;;;;;;;;;8.50;99.90;8.80;99900.00;;;;347539;27;82598;-96
2023/04/03 00:29:55;;;;;;;;;;;8.50;99.90;8.90;99890.00;;;;347306;28;90627;-94
2023/04/03 00:30:09;;;;;;;;;;;8.50;99.90;8.90;99886.00;;;;347716;28;83332;-95
2023/04/03 00:30:22;;;;;;;;;;;8.50;99.90;9.00;99896.00;;;;345923;28;91812;-95
2023/04/03 00:30:33;;;;;;;;;;;8.50;99.90;9.00;99905.00;;;;346260;28;82494;-94
2023/04/03 00:30:46;;;;;;;;;;;8.50;99.90;8.90;99901.00;;;;346161;28;89777;-95
2023/04/03 00:30:58;;;;;;;;;;;8.50;99.90;9.00;99891.00;;;;348094;28;82464;-95
2023/04/03 00:31:10;;;;;;;;;;;8.50;99.90;8.90;99900.00;;;;350222;27;91518;-95
2023/04/03 00:31:22;;;;;;;;;;;8.50;99.90;8.90;99890.00;;;;347898;28;82509;-96
2023/04/03 00:31:33;;;;;;;;;;;8.50;99.90;8.90;99893.00;;;;348785;27;90682;-95
2023/04/03 00:31:45;;;;;;;;;;;8.50;99.90;8.80;99900.00;;;;349089;27;82461;-96
2023/04/03 00:31:57;;;;;;;;;;;8.50;99.90;8.80;99892.00;;;;347388;27;90336;-95
2023/04/03 00:32:09;;;;;;;;;;;8.50;99.90;8.90;99886.00;;;;346464;28;82299;-95
2023/04/03 00:32:21;;;;;;;;;;;8.50;99.90;8.90;99899.00;;;;350047;27;92249;-96
2023/04/03 00:32:33;;;;;;;;;;;8.50;99.90;8.90;99890.00;;;;344942;28;82543;-95
2023/04/03 00:32:50;;;;;;;;;;;8.50;99.90;8.90;99895.00;;;;345953;28;91655;-95
2023/04/03 00:33:02;;;;;;;;;;;8.50;99.90;8.90;99893.00;;;;346379;28;82212;-95
2023/04/03 00:33:14;;;;;;;;;;;8.50;99.90;8.90;99903.00;;;;348625;27;89627;-95
2023/04/03 00:33:26;;;;;;;;;;;8.50;99.90;8.90;99896.00;;;;347649;28;83492;-96
2023/04/03 00:33:38;;;;;;;;;;;8.50;99.90;9.00;99896.00;;;;347367;28;90001;-95
2023/04/03 00:33:50;;;;;;;;;;;8.50;99.90;9.00;99901.00;;;;347747;27;82438;-95
2023/04/03 00:34:01;;;;;;;;;;;8.50;99.90;9.00;99900.00;;;;345892;28;89571;-95
2023/04/03 00:34:13;;;;;;;;;;;8.60;99.90;9.00;99901.00;;;;347676;28;82651;-96
2023/04/03 00:34:25;;;;;;;;;;;8.50;99.90;9.00;99901.00;;;;348287;27;91795;-95
2023/04/03 00:34:37;;;;;;;;;;;8.50;99.90;9.00;99897.00;;;;347736;28;83456;-95
2023/04/03 00:34:49;;;;;;;;;;;8.50;99.90;8.90;99892.00;;;;350219;27;91626;-96
2023/04/03 00:35:01;;;;;;;;;;;8.50;99.90;8.90;99901.00;;;;348915;27;82418;-95
2023/04/03 00:35:15;;;;;;;;;;;8.60;99.90;8.90;99905.00;;;;345729;28;89405;-95
2023/04/03 00:35:27;;;;;;;;;;;8.60;99.90;9.00;99898.00;;;;348993;27;82588;-95
2023/04/03 00:35:39;;;;;;;;;;;8.50;99.90;9.00;99906.00;;;;348663;27;90690;-95
2023/04/03 00:35:51;;;;;;;;;;;8.50;99.90;8.90;99897.00;;;;347671;27;82561;-95
2023/04/03 00:36:10;;;;;;;;;;;8.60;99.90;9.00;99893.00;;;;345947;28;90290;-96
2023/04/03 00:36:22;;;;;;;;;;;8.50;99.90;9.00;99890.00;;;;347684;28;82385;-95
2023/04/03 00:36:34;;;;;;;;;;;8.60;99.90;9.00;99901.00;;;;347061;27;92498;-95
2023/04/03 00:36:46;;;;;;;;;;;8.60;99.90;9.00;99896.00;;;;347379;28;82532;-96
2023/04/03 00:36:58;;;;;;;;;;;8.60;99.90;8.90;99895.00;;;;345836;28;90616;-95
2023/04/03 00:37:10;;;;;;;;;;;8.60;99.90;9.00;99896.00;;;;346018;28;82707;-95
2023/04/03 00:37:22;;;;;;;;;;;8.60;99.90;9.00;99891.00;;;;347121;28;90525;-96
2023/04/03 00:37:34;;;;;;;;;;;8.60;99.90;9.00;99900.00;;;;348805;27;82367;-95
2023/04/03 00:37:46;;;;;;;;;;;8.60;99.90;9.00;99894.00;;;;347308;28;90183;-95
2023/04/03 00:37:58;;;;;;;;;;;8.60;99.90;9.00;99894.00;;;;349183;27;82474;-95
2023/04/03 00:38:10;;;;;;;;;;;8.60;99.90;9.00;99884.00;;;;347220;28;90489;-95
2023/04/03 00:38:22;;;;;;;;;;;8.60;99.90;9.00;99892.00;;;;346267;28;82478;-95
2023/04/03 00:38:34;;;;;;;;;;;8.60;99.90;9.00;99885.00;;;;347159;28;91567;-96
2023/04/03 00:38:49;;;;;;;;;;;8.60;99.90;9.00;99890.00;;;;347711;28;82437;-96
2023/04/03 00:39:01;;;;;;;;;;;8.60;99.90;9.00;99895.00;;;;348412;27;89442;-95
2023/04/03 00:39:13;;;;;;;;;;;8.60;99.90;8.90;99888.00;;;;347636;27;82568;-96
2023/04/03 00:39:25;;;;;;;;;;;8.60;99.90;9.00;99893.00;;;;345923;28;88103;-95
2023/04/03 00:39:37;;;;;;;;;;;8.60;99.90;8.90;99893.00;;;;347621;28;82538;-96
2023/04/03 00:39:49;;;;;;;;;;;8.60;99.90;8.90;99895.00;;;;345864;28;90498;-96
2023/04/03 00:40:01;;;;;;;;;;;8.60;99.90;8.90;99881.00;;;;346382;28;82266;-96
2023/04/03 00:40:14;;;;;;;;;;;8.50;99.90;8.90;99889.00;;;;345888;28;89876;-95
2023/04/03 00:40:26;;;;;;;;;;;8.50;99.90;8.90;99900.00;;;;348709;27;82681;-96
2023/04/03 00:40:41;;;;;;;;;;;8.50;99.90;8.90;99890.00;;;;345700;28;90399;-95
2023/04/03 00:40:53;;;;;;;;;;;8.50;99.90;9.00;99890.00;;;;346429;28;82484;-95
2023/04/03 00:41:04;;;;;;;;;;;8.50;99.90;8.90;99887.00;;;;345744;28;90645;-95
2023/04/03 00:41:16;;;;;;;;;;;8.50;99.90;8.90;99893.00;;;;349075;27;82627;-95
2023/04/03 00:41:29;;;;;;;;;;;8.50;99.90;8.90;99895.00;;;;347280;28;90665;-95
2023/04/03 00:41:42;;;;;;;;;;;8.50;99.90;9.00;99886.00;;;;347664;28;83450;-95
2023/04/03 00:41:53;;;;;;;;;;;8.60;99.90;9.00;99887.00;;;;345961;28;91799;-95
2023/04/03 00:42:05;;;;;;;;;;;8.60;99.90;8.90;99901.00;;;;348793;27;82344;-96
2023/04/03 00:42:17;;;;;;;;;;;8.60;99.90;8.90;99892.00;;;;345875;28;91559;-95
2023/04/03 00:42:29;;;;;;;;;;;8.60;99.90;8.90;99900.00;;;;347587;28;82492;-95
2023/04/03 00:42:42;;;;;;;;;;;8.50;99.90;8.90;99893.00;;;;349778;27;91847;-95
2023/04/03 00:42:58;;;;;;;;;;;8.50;99.90;9.00;99895.00;;;;346351;28;82497;-96
2023/04/03 00:43:12;;;;;;;;;;;8.60;99.90;8.90;99893.00;;;;347067;28;90768;-95
2023/04/03 00:43:24;;;;;;;;;;;8.50;99.90;8.80;99891.00;;;;347733;28;82534;-95
2023/04/03 00:43:36;;;;;;;;;;;8.50;99.90;8.80;99885.00;;;;347303;28;90792;-96
2023/04/03 00:43:48;;;;;;;;;;;8.50;99.90;8.80;99890.00;;;;346031;28;82512;-95
2023/04/03 00:44:00;;;;;;;;;;;8.50;99.90;8.90;99877.00;;;;347087;28;89216;-94
2023/04/03 00:44:23;;;;;;;;;;;8.50;99.90;8.90;99887.00;;;;346074;28;82469;-95
2023/04/03 00:44:34;;;;;;;;;;;8.50;99.90;8.90;99894.00;;;;347166;27;87823;-95
2023/04/03 00:44:46;;;;;;;;;;;8.60;99.90;9.00;99884.00;;;;347614;28;83454;-95
2023/04/03 00:45:00;;;;;;;;;;;8.50;99.90;8.90;99897.00;;;;345796;28;91270;-95
2023/04/03 00:45:23;;;;;;;;;;;8.50;99.90;9.00;99890.00;;;;344904;28;82503;-96
2023/04/03 00:45:37;;;;;;;;;;;8.50;99.90;8.90;99886.00;;;;348598;27;90212;-95
2023/04/03 00:45:50;;;;;;;;;;;8.60;99.90;8.90;99882.00;;;;347590;28;82503;-95
2023/04/03 00:46:02;;;;;;;;;;;8.50;99.90;8.90;99885.00;;;;344472;28;91298;-95
2023/04/03 00:46:14;;;;;;;;;;;8.50;99.90;8.90;99881.00;;;;346047;28;82600;-95
2023/04/03 00:46:26;;;;;;;;;;;8.50;99.90;8.90;99889.00;;;;346943;28;91653;-95
2023/04/03 00:46:38;;;;;;;;;;;8.50;99.90;8.90;99888.00;;;;346207;28;82535;-95
2023/04/03 00:46:50;;;;;;;;;;;8.50;99.90;9.00;99889.00;;;;345776;28;91075;-95
2023/04/03 00:47:02;;;;;;;;;;;8.50;99.90;8.90;99892.00;;;;349050;27;82410;-95
2023/04/03 00:47:15;;;;;;;;;;;8.60;99.90;8.90;99899.00;;;;348492;27;91231;-96
2023/04/03 00:47:27;;;;;;;;;;;8.50;99.90;8.80;99885.00;;;;347556;28;83308;-95
2023/04/03 00:47:39;;;;;;;;;;;8.50;99.90;8.80;99889.00;;;;348668;27;90166;-95
2023/04/03 00:47:51;;;;;;;;;;;8.50;99.90;8.90;99876.00;;;;344844;28;82362;-95
2023/04/03 00:48:05;;;;;;;;;;;8.50;99.90;8.90;99890.00;;;;348536;27;91561;-95
2023/04/03 00:48:34;;;;;;;;;;;8.50;99.90;9.00;99892.00;;;;347518;28;83486;-95
2023/04/03 00:48:47;;;;;;;;;;;8.50;99.90;8.90;99892.00;;;;345689;28;91858;-95
2023/04/03 00:48:59;;;;;;;;;;;8.50;99.90;8.90;99885.00;;;;347404;28;82492;-95
2023/04/03 00:49:11;;;;;;;;;;;8.50;99.90;8.90;99883.00;;;;348377;27;89779;-95
2023/04/03 00:49:23;;;;;;;;;;;8.50;99.90;9.00;99891.00;;;;346246;28;82450;-95
2023/04/03 00:49:35;;;;;;;;;;;8.50;99.90;8.90;99887.00;;;;345546;28;91690;-95
2023/04/03 00:49:47;;;;;;;;;;;8.50;99.90;8.90;99893.00;;;;344659;28;82593;-95
2023/04/03 00:49:59;;;;;;;;;;;8.50;99.90;8.90;99890.00;;;;345836;28;91206;-95
2023/04/03 00:50:10;;;;;;;;;;;8.50;99.90;8.90;99883.00;;;;346324;28;82395;-95
2023/04/03 00:50:22;;;;;;;;;;;8.50;99.90;8.90;99884.00;;;;344355;28;91851;-95
2023/04/03 00:50:37;;;;;;;;;;;8.50;99.90;8.90;99885.00;;;;345910;28;82661;-95
2023/04/03 00:50:49;;;;;;;;;;;8.50;99.90;8.90;99889.00;;;;348489;27;90886;-95
2023/04/03 00:51:02;;;;;;;;;;;8.50;99.90;8.80;99894.00;;;;346172;28;83362;-95
2023/04/03 00:51:33;;;;;;;;;;;8.50;99.90;8.80;99881.00;;;;346981;28;89449;-95
2023/04/03 00:51:45;;;;;;;;;;;8.50;99.90;8.90;99888.00;;;;347615;28;82485;-95
2023/04/03 00:51:57;;;;;;;;;;;8.50;99.90;8.90;99888.00;;;;344307;28;92488;-95
2023/04/03 00:52:12;;;;;;;;;;;8.50;99.90;8.90;99886.00;;;;346201;28;82462;-96
2023/04/03 00:52:28;;;;;;;;;;;8.50;99.90;8.80;99888.00;;;;347024;28;90911;-96
2023/04/03 00:52:39;;;;;;;;;;;8.50;99.90;8.80;99894.00;;;;350417;27;82478;-94
2023/04/03 00:52:51;;;;;;;;;;;8.50;99.90;8.80;99887.00;;;;348363;27;88882;-94
2023/04/03 00:53:03;;;;;;;;;;;8.40;99.90;8.80;99887.00;;;;345824;28;82271;-95
2023/04/03 00:53:24;;;;;;;;;;;8.50;99.90;8.80;99883.00;;;;347160;28;90251;-95
2023/04/03 00:53:42;;;;;;;;;;;8.40;99.90;8.80;99880.00;;;;349043;27;83348;-95
2023/04/03 00:53:55;;;;;;;;;;;8.50;99.90;8.80;99880.00;;;;347121;28;90780;-96
2023/04/03 00:54:07;;;;;;;;;;;8.40;99.90;8.90;99880.00;;;;347585;28;82487;-95
2023/04/03 00:54:19;;;;;;;;;;;8.40;99.90;8.90;99881.00;;;;347163;28;91849;-95
2023/04/03 00:54:31;;;;;;;;;;;8.40;99.90;8.80;99884.00;;;;347321;28;83355;-95
2023/04/03 00:54:43;;;;;;;;;;;8.40;99.90;8.90;99887.00;;;;347210;28;91002;-95
2023/04/03 00:54:58;;;;;;;;;;;8.40;99.90;8.90;99885.00;;;;346178;28;82506;-95
2023/04/03 00:55:10;;;;;;;;;;;8.50;99.90;8.90;99884.00;;;;347198;28;90485;-96
2023/04/03 00:55:22;;;;;;;;;;;8.50;99.90;8.90;99887.00;;;;346211;28;82448;-95
2023/04/03 00:55:34;;;;;;;;;;;8.50;99.90;9.00;99890.00;;;;345583;28;90992;-95
2023/04/03 00:55:46;;;;;;;;;;;8.50;99.90;9.00;99886.00;;;;346192;28;82437;-95
2023/04/03 00:55:58;;;;;;;;;;;8.50;99.90;9.00;99890.00;;;;345813;28;90505;-95
2023/04/03 00:56:12;;;;;;;;;;;8.50;99.90;8.90;99888.00;;;;346215;28;82462;-95
2023/04/03 00:56:24;;;;;;;;;;;8.50;99.90;8.90;99881.00;;;;347108;28;91211;-96
2023/04/03 00:56:36;;;;;;;;;;;8.50;99.90;8.90;99876.00;;;;344762;28;83467;-95
2023/04/03 00:56:48;;;;;;;;;;;8.50;99.90;8.90;99887.00;;;;345756;28;89766;-94
2023/04/03 00:57:00;;;;;;;;;;;8.50;99.90;8.90;99888.00;;;;344837;28;82493;-96
2023/04/03 00:57:12;;;;;;;;;;;8.50;99.90;8.90;99879.00;;;;345770;28;90132;-96
2023/04/03 00:57:24;;;;;;;;;;;8.50;99.90;8.90;99881.00;;;;348976;27;83392;-95
2023/04/03 00:57:36;;;;;;;;;;;8.50;99.90;8.90;99886.00;;;;348603;27;90621;-95
2023/04/03 00:57:48;;;;;;;;;;;8.50;99.90;8.90;99878.00;;;;350248;27;83509;-95
2023/04/03 00:58:00;;;;;;;;;;;8.50;99.90;8.90;99888.00;;;;348384;27;90088;-95
2023/04/03 00:58:12;;;;;;;;;;;8.50;99.90;9.00;99889.00;;;;348932;27;82436;-95
2023/04/03 00:58:28;;;;;;;;;;;8.50;99.90;8.90;99883.00;;;;346981;28;92984;-94
2023/04/03 00:58:46;;;;;;;;;;;8.50;99.90;8.90;99889.00;;;;347606;28;82503;-96
2023/04/03 00:59:06;;;;;;;;;;;8.50;99.90;8.90;99893.00;;;;344492;28;91814;-94
2023/04/03 00:59:25;;;;;;;;;;;8.50;99.90;8.90;99886.00;;;;346233;28;83175;-95
2023/04/03 00:59:40;;;;;;;;;;;8.50;99.90;9.00;99892.00;;;;345762;28;91729;-95
2023/04/03 00:59:57;;;;;;;;;;;8.50;99.90;9.00;99890.00;;;;346225;28;82284;-95
2023/04/03 01:00:12;;;;;;;;;;;8.50;99.90;9.00;99880.00;;;;347356;28;90812;-95
2023/04/03 01:00:24;;;;;;;;;;;8.50;99.90;9.00;99884.00;;;;347666;28;82233;-95
2023/04/03 01:00:37;;;;;;;;;;;8.60;99.90;9.00;99885.00;;;;348501;27;91692;-94
2023/04/03 01:00:56;;;;;;;;;;;8.60;99.90;9.00;99884.00;;;;346320;28;83376;-95
2023/04/03 01:01:08;;;;;;;;;;;8.60;99.90;9.00;99885.00;;;;346751;27;91838;-95
2023/04/03 01:01:24;;;;;;;;;;;8.60;99.90;9.00;99890.00;;;;347406;28;83386;-95
2023/04/03 01:01:36;;;;;;;;;;;8.60;99.90;9.00;99885.00;;;;345529;28;89804;-95
2023/04/03 01:01:48;;;;;;;;;;;8.60;99.90;9.00;99875.00;;;;347528;28;83485;-95
2023/04/03 01:02:00;;;;;;;;;;;8.60;99.90;9.00;99878.00;;;;347159;28;91914;-95
2023/04/03 01:02:12;;;;;;;;;;;8.60;99.90;9.00;99885.00;;;;347657;28;83013;-95
2023/04/03 01:02:24;;;;;;;;;;;8.60;99.90;9.00;99888.00;;;;347209;28;87587;-95
2023/04/03 01:02:36;;;;;;;;;;;8.60;99.90;9.00;99885.00;;;;347658;27;82474;-95
2023/04/03 01:02:49;;;;;;;;;;;8.60;99.90;9.00;99887.00;;;;345733;28;90878;-95
2023/04/03 01:03:01;;;;;;;;;;;8.60;99.90;9.00;99882.00;;;;346293;28;82512;-95
2023/04/03 01:03:13;;;;;;;;;;;8.60;99.90;9.00;99882.00;;;;345680;28;91978;-95
2023/04/03 01:03:25;;;;;;;;;;;8.60;99.90;9.00;99876.00;;;;347645;28;83380;-95
2023/04/03 01:03:37;;;;;;;;;;;8.60;99.90;8.90;99886.00;;;;345750;28;90717;-95
2023/04/03 01:03:48;;;;;;;;;;;8.60;99.90;9.00;99889.00;;;;346053;28;82606;-95
2023/04/03 01:04:02;;;;;;;;;;;8.60;99.90;9.00;99881.00;;;;345822;28;90347;-95